createdAt,value
2018-05-23T00:02:07.390Z,17.10
2018-05-23T00:04:35.679Z,17.00
2018-05-23T00:07:03.191Z,17.00
2018-05-23T00:09:30.704Z,17.00
2018-05-23T00:11:58.218Z,17.00
2018-05-23T00:14:25.760Z,17.00
2018-05-23T00:16:53.307Z,17.00
2018-05-23T00:19:20.801Z,17.00
2018-05-23T00:21:48.297Z,17.00
2018-05-23T00:24:16.598Z,17.00
2018-05-23T00:26:44.184Z,17.00
2018-05-23T00:29:12.439Z,16.90
2018-05-23T00:31:39.984Z,17.00
2018-05-23T00:34:07.500Z,17.00
2018-05-23T00:36:35.082Z,17.00
2018-05-23T00:39:02.629Z,17.00
2018-05-23T00:41:30.205Z,17.00
2018-05-23T00:43:58.488Z,17.00
2018-05-23T00:46:26.012Z,17.10
2018-05-23T00:48:53.525Z,17.10
2018-05-23T00:51:21.030Z,17.10
2018-05-23T00:53:48.554Z,17.00
2018-05-23T00:56:16.103Z,17.10
2018-05-23T00:58:43.623Z,17.10
2018-05-23T01:01:11.184Z,17.10
2018-05-23T01:03:38.739Z,17.00
2018-05-23T01:06:06.246Z,17.10
2018-05-23T01:08:33.766Z,17.00
2018-05-23T01:11:01.296Z,17.00
2018-05-23T01:13:28.796Z,16.90
2018-05-23T01:15:56.334Z,16.90
2018-05-23T01:18:23.835Z,17.00
2018-05-23T01:20:51.337Z,17.00
2018-05-23T01:23:18.886Z,17.00
2018-05-23T01:25:46.386Z,17.00
2018-05-23T01:28:13.904Z,17.00
2018-05-23T01:30:41.440Z,17.00
2018-05-23T01:33:09.720Z,17.00
2018-05-23T01:35:37.244Z,16.90
2018-05-23T01:38:04.763Z,16.90
2018-05-23T01:40:32.272Z,16.90
2018-05-23T01:42:59.826Z,16.90
2018-05-23T01:45:27.343Z,16.90
2018-05-23T01:47:54.878Z,17.00
2018-05-23T01:50:22.853Z,17.00
2018-05-23T01:52:50.354Z,16.90
2018-05-23T01:55:17.867Z,16.90
2018-05-23T01:57:46.158Z,17.00
2018-05-23T02:00:13.716Z,16.90
2018-05-23T02:02:41.241Z,17.00
2018-05-23T02:05:08.855Z,17.00
2018-05-23T02:07:36.386Z,16.90
2018-05-23T02:10:03.882Z,16.90
2018-05-23T02:12:31.446Z,16.90
2018-05-23T02:14:58.943Z,16.90
2018-05-23T02:17:26.443Z,16.90
2018-05-23T02:19:53.987Z,17.00
2018-05-23T02:22:22.271Z,16.90
2018-05-23T02:24:50.547Z,16.90
2018-05-23T02:27:18.850Z,16.90
2018-05-23T02:29:46.385Z,16.90
2018-05-23T02:32:15.489Z,16.80
2018-05-23T02:34:43.032Z,16.80
2018-05-23T02:37:10.574Z,16.80
2018-05-23T02:39:38.085Z,16.80
2018-05-23T02:42:05.628Z,16.80
2018-05-23T02:44:33.125Z,16.90
2018-05-23T02:47:00.678Z,16.90
2018-05-23T02:49:28.175Z,16.90
2018-05-23T02:51:55.695Z,16.90
2018-05-23T02:54:23.208Z,16.90
2018-05-23T02:56:51.507Z,16.90
2018-05-23T02:59:19.031Z,16.80
2018-05-23T03:01:46.577Z,16.90
2018-05-23T03:04:14.119Z,16.80
2018-05-23T03:06:41.631Z,16.80
2018-05-23T03:09:09.911Z,16.80
2018-05-23T03:11:37.445Z,16.80
2018-05-23T03:14:04.945Z,16.80
2018-05-23T03:16:33.218Z,16.80
2018-05-23T03:19:00.737Z,16.80
2018-05-23T03:21:28.234Z,16.80
2018-05-23T03:23:55.769Z,16.80
2018-05-23T03:26:23.338Z,16.80
2018-05-23T03:28:50.847Z,16.80
2018-05-23T03:31:18.371Z,16.70
2018-05-23T03:33:46.677Z,16.70
2018-05-23T03:36:14.186Z,16.70
2018-05-23T03:38:41.708Z,16.70
2018-05-23T03:41:09.995Z,16.60
2018-05-23T03:43:37.524Z,16.60
2018-05-23T03:46:05.083Z,16.60
2018-05-23T03:48:33.374Z,16.60
2018-05-23T03:51:00.875Z,16.60
2018-05-23T03:53:28.378Z,16.60
2018-05-23T03:55:55.914Z,16.60
2018-05-23T03:58:23.419Z,16.60
2018-05-23T04:01:02.610Z,16.50
2018-05-23T04:03:42.021Z,16.60
2018-05-23T04:06:23.647Z,16.50
2018-05-23T04:08:51.932Z,16.50
2018-05-23T04:11:19.478Z,16.50
2018-05-23T04:13:46.995Z,16.40
2018-05-23T04:16:14.499Z,16.40
2018-05-23T04:18:42.026Z,16.40
2018-05-23T04:21:09.538Z,16.40
2018-05-23T04:23:37.048Z,16.50
2018-05-23T04:26:04.583Z,16.40
2018-05-23T04:28:32.082Z,16.30
2018-05-23T04:30:59.605Z,16.30
2018-05-23T04:33:27.131Z,16.30
2018-05-23T04:35:54.635Z,16.30
2018-05-23T04:38:22.158Z,16.40
2018-05-23T04:40:50.461Z,16.50
2018-05-23T04:43:17.977Z,16.40
2018-05-23T04:45:45.480Z,16.50
2018-05-23T04:48:13.015Z,16.50
2018-05-23T04:50:40.645Z,16.60
2018-05-23T04:53:08.154Z,16.60
2018-05-23T04:55:35.695Z,16.60
2018-05-23T04:58:03.203Z,16.60
2018-05-23T05:00:30.711Z,16.60
2018-05-23T05:02:58.272Z,16.60
2018-05-23T05:05:26.555Z,16.60
2018-05-23T05:07:54.071Z,16.60
2018-05-23T05:10:21.653Z,16.60
2018-05-23T05:12:49.578Z,16.60
2018-05-23T05:15:17.134Z,16.70
2018-05-23T05:17:44.709Z,16.70
2018-05-23T05:20:12.938Z,16.70
2018-05-23T05:22:41.025Z,16.70
2018-05-23T05:25:09.619Z,16.70
2018-05-23T05:27:37.261Z,16.70
2018-05-23T05:30:04.779Z,16.70
2018-05-23T05:32:32.323Z,16.70
2018-05-23T05:34:59.850Z,16.80
2018-05-23T05:37:28.117Z,16.70
2018-05-23T05:39:55.662Z,16.70
2018-05-23T05:42:23.166Z,16.80
2018-05-23T05:44:50.678Z,16.80
2018-05-23T05:47:18.278Z,16.80
2018-05-23T05:49:46.550Z,16.90
2018-05-23T05:52:14.830Z,17.00
2018-05-23T05:54:43.157Z,17.00
2018-05-23T05:57:10.678Z,17.00
2018-05-23T05:59:38.941Z,17.10
2018-05-23T06:02:07.280Z,17.10
2018-05-23T06:04:34.846Z,17.10
2018-05-23T06:07:02.359Z,17.10
2018-05-23T06:09:29.968Z,17.10
2018-05-23T06:11:57.436Z,17.00
2018-05-23T06:14:24.985Z,17.00
2018-05-23T06:16:52.595Z,17.00
2018-05-23T06:19:20.869Z,17.00
2018-05-23T06:21:49.177Z,17.00
2018-05-23T06:24:16.735Z,17.00
2018-05-23T06:26:44.240Z,17.00
2018-05-23T06:29:11.764Z,17.00
2018-05-23T06:31:39.290Z,16.90
2018-05-23T06:34:07.574Z,17.00
2018-05-23T06:36:35.842Z,17.00
2018-05-23T06:39:03.369Z,17.00
2018-05-23T06:41:30.892Z,17.10
2018-05-23T06:43:58.464Z,17.00
2018-05-23T06:46:25.986Z,17.00
2018-05-23T06:48:54.259Z,17.00
2018-05-23T06:51:21.795Z,17.00
2018-05-23T06:53:49.295Z,17.10
2018-05-23T06:56:17.605Z,17.30
2018-05-23T06:58:45.125Z,17.30
2018-05-23T07:01:12.662Z,17.40
2018-05-23T07:03:40.202Z,17.50
2018-05-23T07:06:07.715Z,17.60
2018-05-23T07:08:35.233Z,17.70
2018-05-23T07:11:02.795Z,17.70
2018-05-23T07:13:30.286Z,17.80
2018-05-23T07:15:57.812Z,17.80
2018-05-23T07:18:25.332Z,17.80
2018-05-23T07:20:52.853Z,17.80
2018-05-23T07:23:21.154Z,17.70
2018-05-23T07:25:48.693Z,17.70
2018-05-23T07:28:17.006Z,17.70
2018-05-23T07:30:44.533Z,17.70
2018-05-23T07:33:13.118Z,17.80
2018-05-23T07:35:40.660Z,17.80
2018-05-23T07:38:08.179Z,17.80
2018-05-23T07:40:36.449Z,17.80
2018-05-23T07:43:03.973Z,17.80
2018-05-23T07:45:31.522Z,17.80
2018-05-23T07:47:59.066Z,17.90
2018-05-23T07:50:26.650Z,18.00
2018-05-23T07:52:54.179Z,18.00
2018-05-23T07:55:21.679Z,18.10
2018-05-23T07:57:49.219Z,18.10
2018-05-23T08:00:16.722Z,18.10
2018-05-23T08:02:44.240Z,18.20
2018-05-23T08:05:11.774Z,18.20
2018-05-23T08:07:39.273Z,18.20
2018-05-23T08:10:06.776Z,18.30
2018-05-23T08:12:34.995Z,18.20
2018-05-23T08:15:02.500Z,18.30
2018-05-23T08:17:30.045Z,18.30
2018-05-23T08:19:57.601Z,18.40
2018-05-23T08:22:25.136Z,18.40
2018-05-23T08:24:52.667Z,18.50
2018-05-23T08:27:20.175Z,18.40
2018-05-23T08:29:47.820Z,18.50
2018-05-23T08:32:15.250Z,18.50
2018-05-23T08:34:42.754Z,18.60
2018-05-23T08:37:10.295Z,18.50
2018-05-23T08:39:38.546Z,18.50
2018-05-23T08:42:06.074Z,18.40
2018-05-23T08:44:34.386Z,18.40
2018-05-23T08:47:01.906Z,18.40
2018-05-23T08:49:30.184Z,18.60
2018-05-23T08:51:57.714Z,18.60
2018-05-23T08:54:25.246Z,18.60
2018-05-23T08:56:52.758Z,18.60
2018-05-23T08:59:21.096Z,18.70
2018-05-23T09:01:48.604Z,18.70
2018-05-23T09:04:16.904Z,18.80
2018-05-23T09:06:44.439Z,18.80
2018-05-23T09:09:12.730Z,18.80
2018-05-23T09:11:40.246Z,18.90
2018-05-23T09:14:07.777Z,18.90
2018-05-23T09:16:35.310Z,18.80
2018-05-23T09:19:02.850Z,18.90
2018-05-23T09:21:31.227Z,19.00
2018-05-23T09:23:58.742Z,19.00
2018-05-23T09:26:26.251Z,19.00
2018-05-23T09:28:53.779Z,19.00
2018-05-23T09:31:21.303Z,19.00
2018-05-23T09:33:48.830Z,19.00
2018-05-23T09:36:17.118Z,18.90
2018-05-23T09:38:44.624Z,18.90
2018-05-23T09:41:12.125Z,18.80
2018-05-23T09:43:39.667Z,18.80
2018-05-23T09:46:07.187Z,18.80
2018-05-23T09:48:35.427Z,18.80
2018-05-23T09:51:03.722Z,18.70
2018-05-23T09:53:31.233Z,18.70
2018-05-23T09:55:58.821Z,18.70
2018-05-23T09:58:26.339Z,18.70
2018-05-23T10:00:53.876Z,18.70
2018-05-23T10:03:21.369Z,18.70
2018-05-23T10:05:48.874Z,18.80
2018-05-23T10:08:16.441Z,18.80
2018-05-23T10:10:43.945Z,18.90
2018-05-23T10:13:11.446Z,18.90
2018-05-23T10:15:39.739Z,19.00
2018-05-23T10:18:08.002Z,18.90
2018-05-23T10:20:36.301Z,19.00
2018-05-23T10:23:03.822Z,19.00
2018-05-23T10:25:31.334Z,19.00
2018-05-23T10:27:58.846Z,19.20
2018-05-23T10:30:26.444Z,19.30
2018-05-23T10:32:53.989Z,19.50
2018-05-23T10:35:22.322Z,19.80
2018-05-23T10:37:49.826Z,19.80
2018-05-23T10:40:18.102Z,20.30
2018-05-23T10:42:45.640Z,20.30
2018-05-23T10:45:13.142Z,20.70
2018-05-23T10:47:40.654Z,21.40
2018-05-23T10:50:08.209Z,21.60
2018-05-23T10:52:35.731Z,22.10
2018-05-23T10:55:03.270Z,22.90
2018-05-23T10:57:31.578Z,23.60
2018-05-23T10:59:59.083Z,23.60
2018-05-23T11:02:26.588Z,24.00
2018-05-23T11:04:54.890Z,23.30
2018-05-23T11:07:22.412Z,23.30
2018-05-23T11:09:50.754Z,23.00
2018-05-23T11:12:18.286Z,23.00
2018-05-23T11:14:45.877Z,23.10
2018-05-23T11:17:13.321Z,23.30
2018-05-23T11:19:40.843Z,23.40
2018-05-23T11:22:08.377Z,23.40
2018-05-23T11:24:36.659Z,23.30
2018-05-23T11:27:04.157Z,23.30
2018-05-23T11:29:31.681Z,23.30
2018-05-23T11:31:59.223Z,23.20
2018-05-23T11:34:26.732Z,23.20
2018-05-23T11:36:54.258Z,23.20
2018-05-23T11:39:22.576Z,22.90
2018-05-23T11:41:50.105Z,22.80
2018-05-23T11:44:17.658Z,22.70
2018-05-23T11:46:45.930Z,22.50
2018-05-23T11:49:13.431Z,22.50
2018-05-23T11:51:41.138Z,22.40
2018-05-23T11:54:08.642Z,22.30
2018-05-23T11:56:36.149Z,22.50
2018-05-23T11:59:04.232Z,22.50
2018-05-23T12:01:31.768Z,22.60
2018-05-23T12:03:59.661Z,22.60
2018-05-23T12:06:27.177Z,22.70
2018-05-23T12:08:54.686Z,22.70
2018-05-23T12:11:22.242Z,23.00
2018-05-23T12:13:49.769Z,23.40
2018-05-23T12:16:17.303Z,24.00
2018-05-23T12:18:44.805Z,24.50
2018-05-23T12:21:12.340Z,24.50
2018-05-23T12:23:39.851Z,24.50
2018-05-23T12:26:07.375Z,24.80
2018-05-23T12:28:34.930Z,25.00
2018-05-23T12:31:02.429Z,25.00
2018-05-23T12:33:29.939Z,25.20
2018-05-23T12:35:57.459Z,25.00
2018-05-23T12:38:25.075Z,24.80
2018-05-23T12:40:52.669Z,24.70
2018-05-23T12:43:20.898Z,25.00
2018-05-23T12:45:48.409Z,25.00
2018-05-23T12:48:15.952Z,24.90
2018-05-23T12:50:44.334Z,24.80
2018-05-23T12:53:11.851Z,24.80
2018-05-23T12:55:39.516Z,24.70
2018-05-23T12:58:07.005Z,24.70
2018-05-23T13:00:34.546Z,24.80
2018-05-23T13:03:02.084Z,24.80
2018-05-23T13:05:29.626Z,24.70
2018-05-23T13:07:58.738Z,24.70
2018-05-23T13:10:27.041Z,25.10
2018-05-23T13:12:54.549Z,25.10
2018-05-23T13:15:22.082Z,25.20
2018-05-23T13:17:49.677Z,25.40
2018-05-23T13:20:17.146Z,25.50
2018-05-23T13:22:46.184Z,25.20
2018-05-23T13:25:13.718Z,25.20
2018-05-23T13:27:41.289Z,25.20
2018-05-23T13:30:08.802Z,25.40
2018-05-23T13:32:36.331Z,25.50
2018-05-23T13:35:03.858Z,25.40
2018-05-23T13:37:32.129Z,25.50
2018-05-23T13:39:59.702Z,25.40
2018-05-23T13:42:27.975Z,25.40
2018-05-23T13:44:56.262Z,25.30
2018-05-23T13:47:23.797Z,25.30
2018-05-23T13:49:52.069Z,25.60
2018-05-23T13:52:19.596Z,25.50
2018-05-23T13:54:47.161Z,25.50
2018-05-23T13:57:14.662Z,25.50
2018-05-23T13:59:42.938Z,25.50
2018-05-23T14:02:11.242Z,25.60
2018-05-23T14:04:38.802Z,25.70
2018-05-23T14:07:06.375Z,25.70
2018-05-23T14:09:33.951Z,25.30
2018-05-23T14:12:01.424Z,25.10
2018-05-23T14:14:28.997Z,25.20
2018-05-23T14:16:56.546Z,25.60
2018-05-23T14:19:24.160Z,25.70
2018-05-23T14:21:51.668Z,25.50
2018-05-23T14:24:19.939Z,25.70
2018-05-23T14:26:47.539Z,25.60
2018-05-23T14:29:15.045Z,25.20
2018-05-23T14:31:42.545Z,25.30
2018-05-23T14:34:10.073Z,25.30
2018-05-23T14:36:37.581Z,25.20
2018-05-23T14:39:05.875Z,25.00
2018-05-23T14:41:34.175Z,25.10
2018-05-23T14:44:01.699Z,25.10
2018-05-23T14:46:29.233Z,25.20
2018-05-23T14:48:56.830Z,25.40
2018-05-23T14:51:25.110Z,25.40
2018-05-23T14:53:53.470Z,25.20
2018-05-23T14:56:21.028Z,25.20
2018-05-23T14:58:48.565Z,25.20
2018-05-23T15:01:16.141Z,25.40
2018-05-23T15:03:43.651Z,25.60
2018-05-23T15:06:11.167Z,25.50
2018-05-23T15:08:38.735Z,25.30
2018-05-23T15:11:06.250Z,25.30
2018-05-23T15:13:33.763Z,25.20
2018-05-23T15:16:01.350Z,25.20
2018-05-23T15:18:28.869Z,25.10
2018-05-23T15:20:56.383Z,25.00
2018-05-23T15:23:23.904Z,25.10
2018-05-23T15:25:52.200Z,24.70
2018-05-23T15:28:19.736Z,24.70
2018-05-23T15:30:47.289Z,24.70
2018-05-23T15:33:14.795Z,24.70
2018-05-23T15:35:42.326Z,24.60
2018-05-23T15:38:09.888Z,24.60
2018-05-23T15:40:37.556Z,24.70
2018-05-23T15:43:05.055Z,24.70
2018-05-23T15:45:32.561Z,24.60
2018-05-23T15:48:00.081Z,24.50
2018-05-23T15:50:27.675Z,24.40
2018-05-23T15:52:55.239Z,24.60
2018-05-23T15:55:22.782Z,24.60
2018-05-23T15:57:51.169Z,24.60
2018-05-23T16:00:18.683Z,24.50
2018-05-23T16:02:46.179Z,24.40
2018-05-23T16:05:13.717Z,24.40
2018-05-23T16:07:41.386Z,24.40
2018-05-23T16:10:08.904Z,24.40
2018-05-23T16:12:36.437Z,24.40
2018-05-23T16:15:03.982Z,24.40
2018-05-23T16:17:31.488Z,24.40
2018-05-23T16:19:59.001Z,24.20
2018-05-23T16:22:26.576Z,24.20
2018-05-23T16:24:54.113Z,24.10
2018-05-23T16:27:21.603Z,24.00
2018-05-23T16:29:49.175Z,24.10
2018-05-23T16:32:16.715Z,24.10
2018-05-23T16:34:44.253Z,24.20
2018-05-23T16:37:11.791Z,24.20
2018-05-23T16:39:39.319Z,24.20
2018-05-23T16:42:07.586Z,24.20
2018-05-23T16:44:35.132Z,24.20
2018-05-23T16:47:02.678Z,24.20
2018-05-23T16:49:30.174Z,24.10
2018-05-23T16:51:57.716Z,24.00
2018-05-23T16:54:25.336Z,23.90
2018-05-23T16:56:52.842Z,23.90
2018-05-23T16:59:20.363Z,23.90
2018-05-23T17:01:48.149Z,23.80
2018-05-23T17:04:15.658Z,23.80
2018-05-23T17:06:43.931Z,23.60
2018-05-23T17:09:12.223Z,23.60
2018-05-23T17:11:39.762Z,23.60
2018-05-23T17:14:08.152Z,23.50
2018-05-23T17:16:35.756Z,23.50
2018-05-23T17:19:03.285Z,23.50
2018-05-23T17:21:31.190Z,23.40
2018-05-23T17:23:58.839Z,23.40
2018-05-23T17:26:26.361Z,23.40
2018-05-23T17:28:54.639Z,23.30
2018-05-23T17:31:22.174Z,23.30
2018-05-23T17:33:49.670Z,23.30
2018-05-23T17:36:17.978Z,23.30
2018-05-23T17:38:45.519Z,23.20
2018-05-23T17:41:13.025Z,23.20
2018-05-23T17:43:40.529Z,23.20
2018-05-23T17:46:08.830Z,23.20
2018-05-23T17:48:36.701Z,23.20
2018-05-23T17:51:04.314Z,23.20
2018-05-23T17:53:31.817Z,23.20
2018-05-23T17:55:59.318Z,23.00
2018-05-23T17:58:26.865Z,23.00
2018-05-23T18:10:35.677Z,23.00
2018-05-23T18:13:03.214Z,22.80
2018-05-23T18:15:30.713Z,22.70
2018-05-23T18:17:58.226Z,22.70
2018-05-23T18:20:25.783Z,22.60
2018-05-23T18:22:53.272Z,22.60
2018-05-23T18:25:20.799Z,22.50
2018-05-23T18:27:48.326Z,22.50
2018-05-23T18:30:15.847Z,22.50
2018-05-23T18:32:43.445Z,22.40
2018-05-23T18:35:11.760Z,22.30
2018-05-23T18:37:39.265Z,22.30
2018-05-23T18:40:07.874Z,22.20
2018-05-23T18:42:35.371Z,22.20
2018-05-23T18:45:02.873Z,22.20
2018-05-23T18:47:30.453Z,22.10
2018-05-23T18:49:59.587Z,22.10
2018-05-23T18:52:27.098Z,22.00
2018-05-23T18:54:54.623Z,22.00
2018-05-23T18:57:22.130Z,21.90
2018-05-23T18:59:49.631Z,21.90
2018-05-23T19:02:17.203Z,21.80
2018-05-23T19:04:44.695Z,21.80
2018-05-23T19:07:12.781Z,21.80
2018-05-23T19:09:41.125Z,21.70
2018-05-23T19:12:08.630Z,21.70
2018-05-23T19:14:36.896Z,21.70
2018-05-23T19:17:04.452Z,21.60
2018-05-23T19:19:32.813Z,21.60
2018-05-23T19:22:00.238Z,21.60
2018-05-23T19:24:27.819Z,21.50
2018-05-23T19:26:55.317Z,21.50
2018-05-23T19:29:22.838Z,21.50
2018-05-23T19:31:50.347Z,21.50
2018-05-23T19:34:17.955Z,21.50
2018-05-23T19:36:45.419Z,21.40
2018-05-23T19:39:13.057Z,21.40
2018-05-23T19:41:40.504Z,21.40
2018-05-23T19:44:08.042Z,21.30
2018-05-23T19:46:35.567Z,21.30
2018-05-23T19:49:03.168Z,21.30
2018-05-23T19:51:30.668Z,21.20
2018-05-23T19:53:58.162Z,21.20
2018-05-23T19:56:25.686Z,21.20
2018-05-23T19:58:53.193Z,21.10
2018-05-23T20:01:20.695Z,21.10
2018-05-23T20:03:48.235Z,21.00
2018-05-23T20:06:15.727Z,21.00
2018-05-23T20:08:43.291Z,21.00
2018-05-23T20:11:11.294Z,20.90
2018-05-23T20:13:38.818Z,20.90
2018-05-23T20:16:06.339Z,20.90
2018-05-23T20:18:33.899Z,20.80
2018-05-23T20:21:02.945Z,20.70
2018-05-23T20:23:30.461Z,20.70
2018-05-23T20:25:58.776Z,20.70
2018-05-23T20:28:26.298Z,20.70
2018-05-23T20:30:54.570Z,20.60
2018-05-23T20:33:22.870Z,20.60
2018-05-23T20:35:50.378Z,20.60
2018-05-23T20:38:17.893Z,20.60
2018-05-23T20:40:45.694Z,20.50
2018-05-23T20:43:13.251Z,20.50
2018-05-23T20:45:41.623Z,20.40
2018-05-23T20:48:09.151Z,20.40
2018-05-23T20:50:37.549Z,20.30
2018-05-23T20:53:05.174Z,20.40
2018-05-23T20:55:32.646Z,20.30
2018-05-23T20:58:00.910Z,20.30
2018-05-23T21:00:28.419Z,20.20
2018-05-23T21:02:55.996Z,20.20
2018-05-23T21:05:23.515Z,20.20
2018-05-23T21:07:51.608Z,20.10
2018-05-23T21:10:19.132Z,20.10
2018-05-23T21:12:47.433Z,20.10
2018-05-23T21:15:14.948Z,20.10
2018-05-23T21:17:42.456Z,20.00
2018-05-23T21:20:09.989Z,20.00
2018-05-23T21:22:37.529Z,20.00
2018-05-23T21:25:05.045Z,19.90
2018-05-23T21:27:32.593Z,19.90
2018-05-23T21:30:00.102Z,19.90
2018-05-23T21:32:27.602Z,19.90
2018-05-23T21:34:55.918Z,19.80
2018-05-23T21:37:24.412Z,19.80
2018-05-23T21:39:51.929Z,19.80
2018-05-23T21:42:19.501Z,19.80
2018-05-23T21:44:46.970Z,19.80
2018-05-23T21:47:14.489Z,19.70
2018-05-23T21:49:42.894Z,19.60
2018-05-23T21:52:10.403Z,19.60
2018-05-23T21:54:37.901Z,19.60
2018-05-23T21:57:06.187Z,19.60
2018-05-23T21:59:33.722Z,19.60
2018-05-23T22:02:01.229Z,19.60
2018-05-23T22:04:28.758Z,19.50
2018-05-23T22:06:57.034Z,19.50
2018-05-23T22:09:25.295Z,19.50
2018-05-23T22:11:52.845Z,19.40
2018-05-23T22:14:20.344Z,19.40
2018-05-23T22:16:47.868Z,19.40
2018-05-23T22:19:15.431Z,19.30
2018-05-23T22:21:42.955Z,19.30
2018-05-23T22:24:10.491Z,19.30
2018-05-23T22:26:38.005Z,19.30
2018-05-23T22:29:05.571Z,19.20
2018-05-23T22:31:33.088Z,19.20
2018-05-23T22:34:00.629Z,19.20
2018-05-23T22:36:29.398Z,19.10
2018-05-23T22:38:56.931Z,19.10
2018-05-23T22:41:24.446Z,19.10
2018-05-23T22:43:52.742Z,19.00
2018-05-23T22:46:20.252Z,19.00
2018-05-23T22:48:47.779Z,19.00
2018-05-23T22:51:15.439Z,19.00
2018-05-23T22:53:42.934Z,18.90
2018-05-23T22:56:10.478Z,18.90
2018-05-23T22:58:37.994Z,18.90
2018-05-23T23:01:05.536Z,18.90
2018-05-23T23:03:33.823Z,18.90
2018-05-23T23:06:01.349Z,18.90
2018-05-23T23:08:28.860Z,18.90
2018-05-23T23:10:56.377Z,18.90
2018-05-23T23:13:23.904Z,18.90
2018-05-23T23:15:51.447Z,18.90
2018-05-23T23:18:18.958Z,18.90
2018-05-23T23:20:46.495Z,18.90
2018-05-23T23:23:14.040Z,18.90
2018-05-23T23:25:41.612Z,18.80
2018-05-23T23:28:09.939Z,18.80
2018-05-23T23:30:37.639Z,18.80
2018-05-23T23:33:05.136Z,18.80
2018-05-23T23:35:32.660Z,18.80
2018-05-23T23:38:00.166Z,18.80
2018-05-23T23:40:27.678Z,18.80
2018-05-23T23:42:55.251Z,18.80
2018-05-23T23:45:22.765Z,18.70
2018-05-23T23:47:51.307Z,18.60
2018-05-23T23:50:19.335Z,18.70
2018-05-23T23:52:46.862Z,18.60
2018-05-23T23:55:15.146Z,18.60
2018-05-23T23:57:42.696Z,18.60
